sensor_id;sensor_type;location;lat;lon;timestamp;temperature;humidity
4548;DHT22;2286;51.570;7.090;2023-05-09T00:02:00;14.70;99.90
4548;DHT22;2286;51.570;7.090;2023-05-09T00:04:27;14.70;99.90
4548;DHT22;2286;51.570;7.090;2023-05-09T00:06:54;14.70;99.90
4548;DHT22;2286;51.570;7.090;2023-05-09T00:09:24;14.70;99.90
4548;DHT22;2286;51.570;7.090;2023-05-09T00:11:51;14.60;99.90
4548;DHT22;2286;51.570;7.090;2023-05-09T00:14:18;14.50;99.90
4548;DHT22;2286;51.570;7.090;2023-05-09T00:16:45;14.50;99.90
4548;DHT22;2286;51.570;7.090;2023-05-09T00:19:12;14.50;99.90
4548;DHT22;2286;51.570;7.090;2023-05-09T00:21:39;14.40;99.90
4548;DHT22;2286;51.570;7.090;2023-05-09T00:24:06;14.40;99.90
4548;DHT22;2286;51.570;7.090;2023-05-09T00:26:34;14.40;99.90
4548;DHT22;2286;51.570;7.090;2023-05-09T00:29:01;14.30;99.90
4548;DHT22;2286;51.570;7.090;2023-05-09T00:31:28;14.30;99.90
4548;DHT22;2286;51.570;7.090;2023-05-09T00:33:56;14.20;99.90
4548;DHT22;2286;51.570;7.090;2023-05-09T00:36:23;14.20;99.90
4548;DHT22;2286;51.570;7.090;2023-05-09T00:38:50;14.20;99.90
4548;DHT22;2286;51.570;7.090;2023-05-09T00:41:17;14.10;99.90
4548;DHT22;2286;51.570;7.090;2023-05-09T00:43:45;14.00;99.90
4548;DHT22;2286;51.570;7.090;2023-05-09T00:46:12;14.00;99.90
4548;DHT22;2286;51.570;7.090;2023-05-09T00:48:40;14.00;99.90
4548;DHT22;2286;51.570;7.090;2023-05-09T00:51:07;14.00;99.90
4548;DHT22;2286;51.570;7.090;2023-05-09T00:53:34;14.00;99.90
4548;DHT22;2286;51.570;7.090;2023-05-09T00:56:02;14.00;99.90
4548;DHT22;2286;51.570;7.090;2023-05-09T00:58:29;14.10;99.90
4548;DHT22;2286;51.570;7.090;2023-05-09T01:00:57;14.20;99.90
4548;DHT22;2286;51.570;7.090;2023-05-09T01:03:26;14.20;99.90
4548;DHT22;2286;51.570;7.090;2023-05-09T01:06:00;14.30;99.90
4548;DHT22;2286;51.570;7.090;2023-05-09T01:08:43;14.30;99.90
4548;DHT22;2286;51.570;7.090;2023-05-09T01:11:12;14.30;99.90
4548;DHT22;2286;51.570;7.090;2023-05-09T01:13:48;14.20;99.90
4548;DHT22;2286;51.570;7.090;2023-05-09T01:16:24;14.20;99.90
4548;DHT22;2286;51.570;7.090;2023-05-09T01:18:56;14.20;99.90
4548;DHT22;2286;51.570;7.090;2023-05-09T01:21:28;14.20;99.90
4548;DHT22;2286;51.570;7.090;2023-05-09T01:27:17;14.30;99.90
4548;DHT22;2286;51.570;7.090;2023-05-09T01:29:47;14.30;99.90
4548;DHT22;2286;51.570;7.090;2023-05-09T01:32:20;14.30;99.90
4548;DHT22;2286;51.570;7.090;2023-05-09T01:34:50;14.20;99.90
4548;DHT22;2286;51.570;7.090;2023-05-09T01:37:21;14.20;99.90
4548;DHT22;2286;51.570;7.090;2023-05-09T01:39:52;14.10;99.90
4548;DHT22;2286;51.570;7.090;2023-05-09T01:42:22;14.10;99.90
4548;DHT22;2286;51.570;7.090;2023-05-09T01:44:53;14.20;99.90
4548;DHT22;2286;51.570;7.090;2023-05-09T01:47:20;14.10;99.90
4548;DHT22;2286;51.570;7.090;2023-05-09T01:49:49;14.10;99.90
4548;DHT22;2286;51.570;7.090;2023-05-09T01:52:18;14.10;99.90
4548;DHT22;2286;51.570;7.090;2023-05-09T01:54:45;14.10;99.90
4548;DHT22;2286;51.570;7.090;2023-05-09T01:57:13;14.00;99.90
4548;DHT22;2286;51.570;7.090;2023-05-09T01:59:43;14.00;99.90
4548;DHT22;2286;51.570;7.090;2023-05-09T02:02:11;14.00;99.90
4548;DHT22;2286;51.570;7.090;2023-05-09T02:04:40;14.00;99.90
4548;DHT22;2286;51.570;7.090;2023-05-09T02:07:07;13.90;99.90
4548;DHT22;2286;51.570;7.090;2023-05-09T02:09:35;13.90;99.90
4548;DHT22;2286;51.570;7.090;2023-05-09T02:12:02;13.90;99.90
4548;DHT22;2286;51.570;7.090;2023-05-09T02:14:30;13.90;99.90
4548;DHT22;2286;51.570;7.090;2023-05-09T02:16:58;13.90;99.90
4548;DHT22;2286;51.570;7.090;2023-05-09T02:19:32;14.00;99.90
4548;DHT22;2286;51.570;7.090;2023-05-09T02:21:59;13.90;99.90
4548;DHT22;2286;51.570;7.090;2023-05-09T02:24:26;13.90;99.90
4548;DHT22;2286;51.570;7.090;2023-05-09T02:26:54;14.00;99.90
4548;DHT22;2286;51.570;7.090;2023-05-09T02:29:24;14.00;99.90
4548;DHT22;2286;51.570;7.090;2023-05-09T02:31:53;14.10;99.90
4548;DHT22;2286;51.570;7.090;2023-05-09T02:34:20;14.10;99.90
4548;DHT22;2286;51.570;7.090;2023-05-09T02:36:48;14.10;99.90
4548;DHT22;2286;51.570;7.090;2023-05-09T02:39:15;14.10;99.90
4548;DHT22;2286;51.570;7.090;2023-05-09T02:41:47;14.20;99.90
4548;DHT22;2286;51.570;7.090;2023-05-09T02:44:14;14.20;99.90
4548;DHT22;2286;51.570;7.090;2023-05-09T02:46:41;14.20;99.90
4548;DHT22;2286;51.570;7.090;2023-05-09T02:49:08;14.20;99.90
4548;DHT22;2286;51.570;7.090;2023-05-09T02:51:35;14.30;99.90
4548;DHT22;2286;51.570;7.090;2023-05-09T02:54:03;14.30;99.90
4548;DHT22;2286;51.570;7.090;2023-05-09T02:56:30;14.30;99.90
4548;DHT22;2286;51.570;7.090;2023-05-09T02:58:57;14.30;99.90
4548;DHT22;2286;51.570;7.090;2023-05-09T03:01:24;14.40;99.90
4548;DHT22;2286;51.570;7.090;2023-05-09T03:03:51;14.40;99.90
4548;DHT22;2286;51.570;7.090;2023-05-09T03:06:18;14.40;99.90
4548;DHT22;2286;51.570;7.090;2023-05-09T03:08:45;14.40;99.90
4548;DHT22;2286;51.570;7.090;2023-05-09T03:11:13;14.40;99.90
4548;DHT22;2286;51.570;7.090;2023-05-09T03:13:40;14.50;99.90
4548;DHT22;2286;51.570;7.090;2023-05-09T03:16:07;14.50;99.90
4548;DHT22;2286;51.570;7.090;2023-05-09T03:18:34;14.50;99.90
4548;DHT22;2286;51.570;7.090;2023-05-09T03:21:00;14.50;99.90
4548;DHT22;2286;51.570;7.090;2023-05-09T03:23:27;14.60;99.90
4548;DHT22;2286;51.570;7.090;2023-05-09T03:25:54;14.60;99.90
4548;DHT22;2286;51.570;7.090;2023-05-09T03:28:23;14.70;99.90
4548;DHT22;2286;51.570;7.090;2023-05-09T03:30:49;14.70;99.90
4548;DHT22;2286;51.570;7.090;2023-05-09T03:33:16;14.80;99.90
4548;DHT22;2286;51.570;7.090;2023-05-09T03:35:43;14.80;99.90
4548;DHT22;2286;51.570;7.090;2023-05-09T03:38:10;14.80;99.90
4548;DHT22;2286;51.570;7.090;2023-05-09T03:40:37;14.80;99.90
4548;DHT22;2286;51.570;7.090;2023-05-09T03:43:04;14.90;99.90
4548;DHT22;2286;51.570;7.090;2023-05-09T03:45:32;14.90;99.90
4548;DHT22;2286;51.570;7.090;2023-05-09T03:48:00;15.00;99.90
4548;DHT22;2286;51.570;7.090;2023-05-09T03:50:29;15.00;99.90
4548;DHT22;2286;51.570;7.090;2023-05-09T03:52:56;15.00;99.90
4548;DHT22;2286;51.570;7.090;2023-05-09T03:55:23;15.10;99.90
4548;DHT22;2286;51.570;7.090;2023-05-09T03:57:50;15.10;99.90
4548;DHT22;2286;51.570;7.090;2023-05-09T04:00:17;15.10;99.90
4548;DHT22;2286;51.570;7.090;2023-05-09T04:02:46;15.20;99.90
4548;DHT22;2286;51.570;7.090;2023-05-09T04:05:13;15.30;99.90
4548;DHT22;2286;51.570;7.090;2023-05-09T04:07:40;15.40;99.90
4548;DHT22;2286;51.570;7.090;2023-05-09T04:10:08;15.40;99.90
4548;DHT22;2286;51.570;7.090;2023-05-09T04:12:35;15.50;99.90
4548;DHT22;2286;51.570;7.090;2023-05-09T04:15:02;15.50;99.90
4548;DHT22;2286;51.570;7.090;2023-05-09T04:17:29;15.60;20.90
4548;DHT22;2286;51.570;7.090;2023-05-09T04:19:57;15.60;1.00
4548;DHT22;2286;51.570;7.090;2023-05-09T04:22:24;15.60;1.00
4548;DHT22;2286;51.570;7.090;2023-05-09T04:24:51;15.60;1.00
4548;DHT22;2286;51.570;7.090;2023-05-09T04:27:18;15.70;1.00
4548;DHT22;2286;51.570;7.090;2023-05-09T04:29:45;15.70;1.00
4548;DHT22;2286;51.570;7.090;2023-05-09T04:32:14;15.70;1.00
4548;DHT22;2286;51.570;7.090;2023-05-09T04:34:40;15.70;18.10
4548;DHT22;2286;51.570;7.090;2023-05-09T04:37:09;15.70;23.40
4548;DHT22;2286;51.570;7.090;2023-05-09T04:39:36;15.70;93.50
4548;DHT22;2286;51.570;7.090;2023-05-09T04:42:03;15.70;99.90
4548;DHT22;2286;51.570;7.090;2023-05-09T04:44:30;15.60;99.90
4548;DHT22;2286;51.570;7.090;2023-05-09T04:46:57;15.70;99.90
4548;DHT22;2286;51.570;7.090;2023-05-09T04:49:24;15.70;99.90
4548;DHT22;2286;51.570;7.090;2023-05-09T04:51:51;15.70;99.90
4548;DHT22;2286;51.570;7.090;2023-05-09T04:54:19;15.70;99.90
4548;DHT22;2286;51.570;7.090;2023-05-09T04:56:46;15.80;99.90
4548;DHT22;2286;51.570;7.090;2023-05-09T04:59:13;15.80;99.90
4548;DHT22;2286;51.570;7.090;2023-05-09T05:01:40;15.80;99.90
4548;DHT22;2286;51.570;7.090;2023-05-09T05:04:07;15.80;99.90
4548;DHT22;2286;51.570;7.090;2023-05-09T05:06:34;15.80;99.90
4548;DHT22;2286;51.570;7.090;2023-05-09T05:09:01;15.80;99.90
4548;DHT22;2286;51.570;7.090;2023-05-09T05:11:29;15.80;99.90
4548;DHT22;2286;51.570;7.090;2023-05-09T05:13:56;15.80;99.90
4548;DHT22;2286;51.570;7.090;2023-05-09T05:16:23;15.80;99.90
4548;DHT22;2286;51.570;7.090;2023-05-09T05:18:50;15.80;99.90
4548;DHT22;2286;51.570;7.090;2023-05-09T05:21:17;15.90;99.90
4548;DHT22;2286;51.570;7.090;2023-05-09T05:23:44;15.90;99.90
4548;DHT22;2286;51.570;7.090;2023-05-09T05:26:10;15.90;99.90
4548;DHT22;2286;51.570;7.090;2023-05-09T05:28:39;15.90;99.90
4548;DHT22;2286;51.570;7.090;2023-05-09T05:31:05;16.00;99.90
4548;DHT22;2286;51.570;7.090;2023-05-09T05:33:32;16.00;50.50
4548;DHT22;2286;51.570;7.090;2023-05-09T05:35:59;15.90;8.80
4548;DHT22;2286;51.570;7.090;2023-05-09T05:38:26;16.00;50.10
4548;DHT22;2286;51.570;7.090;2023-05-09T05:40:53;16.00;60.50
4548;DHT22;2286;51.570;7.090;2023-05-09T05:43:20;16.10;1.00
4548;DHT22;2286;51.570;7.090;2023-05-09T05:45:48;16.00;1.00
4548;DHT22;2286;51.570;7.090;2023-05-09T05:48:15;16.10;1.00
4548;DHT22;2286;51.570;7.090;2023-05-09T05:50:42;16.10;1.00
4548;DHT22;2286;51.570;7.090;2023-05-09T05:53:09;16.20;1.00
4548;DHT22;2286;51.570;7.090;2023-05-09T05:55:36;16.20;1.00
4548;DHT22;2286;51.570;7.090;2023-05-09T05:58:03;16.20;1.00
4548;DHT22;2286;51.570;7.090;2023-05-09T06:00:30;16.20;99.90
4548;DHT22;2286;51.570;7.090;2023-05-09T06:02:58;16.30;1.00
4548;DHT22;2286;51.570;7.090;2023-05-09T06:05:25;16.30;99.90
4548;DHT22;2286;51.570;7.090;2023-05-09T06:07:52;16.30;99.90
4548;DHT22;2286;51.570;7.090;2023-05-09T06:10:19;16.40;66.60
4548;DHT22;2286;51.570;7.090;2023-05-09T06:12:46;16.50;1.00
4548;DHT22;2286;51.570;7.090;2023-05-09T06:15:13;16.60;1.00
4548;DHT22;2286;51.570;7.090;2023-05-09T06:17:40;16.80;95.00
4548;DHT22;2286;51.570;7.090;2023-05-09T06:20:08;17.00;1.00
4548;DHT22;2286;51.570;7.090;2023-05-09T06:22:35;17.10;99.90
4548;DHT22;2286;51.570;7.090;2023-05-09T06:25:03;17.20;1.00
4548;DHT22;2286;51.570;7.090;2023-05-09T06:27:30;17.30;99.90
4548;DHT22;2286;51.570;7.090;2023-05-09T06:29:56;17.40;99.90
4548;DHT22;2286;51.570;7.090;2023-05-09T06:32:23;17.40;1.00
4548;DHT22;2286;51.570;7.090;2023-05-09T06:34:50;17.60;99.90
4548;DHT22;2286;51.570;7.090;2023-05-09T06:37:18;17.60;1.00
4548;DHT22;2286;51.570;7.090;2023-05-09T06:39:45;17.60;1.00
4548;DHT22;2286;51.570;7.090;2023-05-09T06:42:12;17.60;1.00
4548;DHT22;2286;51.570;7.090;2023-05-09T06:44:39;17.70;1.00
4548;DHT22;2286;51.570;7.090;2023-05-09T06:47:08;17.80;1.00
4548;DHT22;2286;51.570;7.090;2023-05-09T06:49:35;17.90;99.90
4548;DHT22;2286;51.570;7.090;2023-05-09T06:52:02;17.90;99.90
4548;DHT22;2286;51.570;7.090;2023-05-09T06:54:30;17.90;99.90
4548;DHT22;2286;51.570;7.090;2023-05-09T06:56:57;18.10;1.00
4548;DHT22;2286;51.570;7.090;2023-05-09T06:59:25;18.10;1.00
4548;DHT22;2286;51.570;7.090;2023-05-09T07:01:52;18.30;1.00
4548;DHT22;2286;51.570;7.090;2023-05-09T07:04:20;18.30;99.90
4548;DHT22;2286;51.570;7.090;2023-05-09T07:06:47;18.60;1.00
4548;DHT22;2286;51.570;7.090;2023-05-09T07:09:14;18.70;4.90
4548;DHT22;2286;51.570;7.090;2023-05-09T07:11:43;18.80;1.00
4548;DHT22;2286;51.570;7.090;2023-05-09T07:14:10;18.80;1.00
4548;DHT22;2286;51.570;7.090;2023-05-09T07:16:37;19.00;1.00
4548;DHT22;2286;51.570;7.090;2023-05-09T07:19:04;19.00;1.00
4548;DHT22;2286;51.570;7.090;2023-05-09T07:21:31;19.00;1.00
4548;DHT22;2286;51.570;7.090;2023-05-09T07:23:58;19.00;1.00
4548;DHT22;2286;51.570;7.090;2023-05-09T07:26:25;19.00;1.00
4548;DHT22;2286;51.570;7.090;2023-05-09T07:28:53;19.00;99.90
4548;DHT22;2286;51.570;7.090;2023-05-09T07:31:20;19.20;1.00
4548;DHT22;2286;51.570;7.090;2023-05-09T07:33:47;19.30;99.90
4548;DHT22;2286;51.570;7.090;2023-05-09T07:36:14;19.40;87.20
4548;DHT22;2286;51.570;7.090;2023-05-09T07:38:41;19.40;50.50
4548;DHT22;2286;51.570;7.090;2023-05-09T07:41:08;19.60;59.10
4548;DHT22;2286;51.570;7.090;2023-05-09T07:43:35;19.60;43.20
4548;DHT22;2286;51.570;7.090;2023-05-09T07:46:04;19.80;1.00
4548;DHT22;2286;51.570;7.090;2023-05-09T07:48:31;20.00;99.90
4548;DHT22;2286;51.570;7.090;2023-05-09T07:50:58;20.30;99.90
4548;DHT22;2286;51.570;7.090;2023-05-09T07:53:25;20.50;1.00
4548;DHT22;2286;51.570;7.090;2023-05-09T07:55:52;20.70;1.00
4548;DHT22;2286;51.570;7.090;2023-05-09T07:58:18;20.90;99.90
4548;DHT22;2286;51.570;7.090;2023-05-09T08:00:45;21.00;99.90
4548;DHT22;2286;51.570;7.090;2023-05-09T08:03:14;21.00;99.90
4548;DHT22;2286;51.570;7.090;2023-05-09T08:05:41;21.20;99.90
4548;DHT22;2286;51.570;7.090;2023-05-09T08:08:07;21.30;58.20
4548;DHT22;2286;51.570;7.090;2023-05-09T08:10:34;21.60;1.00
4548;DHT22;2286;51.570;7.090;2023-05-09T08:13:01;21.80;1.00
4548;DHT22;2286;51.570;7.090;2023-05-09T08:15:28;22.10;1.00
4548;DHT22;2286;51.570;7.090;2023-05-09T08:17:55;22.10;1.00
4548;DHT22;2286;51.570;7.090;2023-05-09T08:20:24;22.00;1.00
4548;DHT22;2286;51.570;7.090;2023-05-09T08:22:50;22.10;1.00
4548;DHT22;2286;51.570;7.090;2023-05-09T08:25:17;22.10;1.00
4548;DHT22;2286;51.570;7.090;2023-05-09T08:27:45;22.00;1.00
4548;DHT22;2286;51.570;7.090;2023-05-09T08:30:13;21.60;1.00
4548;DHT22;2286;51.570;7.090;2023-05-09T08:32:40;21.60;1.00
4548;DHT22;2286;51.570;7.090;2023-05-09T08:35:07;21.50;99.90
4548;DHT22;2286;51.570;7.090;2023-05-09T08:37:36;21.50;99.90
4548;DHT22;2286;51.570;7.090;2023-05-09T08:40:03;21.80;99.90
4548;DHT22;2286;51.570;7.090;2023-05-09T08:42:32;22.10;99.90
4548;DHT22;2286;51.570;7.090;2023-05-09T08:45:05;21.90;99.90
4548;DHT22;2286;51.570;7.090;2023-05-09T08:47:34;21.80;99.90
4548;DHT22;2286;51.570;7.090;2023-05-09T08:50:01;21.50;99.90
4548;DHT22;2286;51.570;7.090;2023-05-09T08:52:29;21.30;1.00
4548;DHT22;2286;51.570;7.090;2023-05-09T08:54:58;21.50;99.90
4548;DHT22;2286;51.570;7.090;2023-05-09T08:57:25;21.70;99.90
4548;DHT22;2286;51.570;7.090;2023-05-09T08:59:52;21.70;99.90
4548;DHT22;2286;51.570;7.090;2023-05-09T09:02:20;21.80;99.90
4548;DHT22;2286;51.570;7.090;2023-05-09T09:04:47;22.10;99.90
4548;DHT22;2286;51.570;7.090;2023-05-09T09:07:14;21.90;99.90
4548;DHT22;2286;51.570;7.090;2023-05-09T09:09:43;21.70;99.90
4548;DHT22;2286;51.570;7.090;2023-05-09T09:12:14;22.10;99.90
4548;DHT22;2286;51.570;7.090;2023-05-09T09:14:46;22.30;99.90
4548;DHT22;2286;51.570;7.090;2023-05-09T09:17:17;22.90;99.90
4548;DHT22;2286;51.570;7.090;2023-05-09T09:19:48;23.20;99.90
4548;DHT22;2286;51.570;7.090;2023-05-09T09:22:17;23.20;99.90
4548;DHT22;2286;51.570;7.090;2023-05-09T09:24:45;22.90;99.90
4548;DHT22;2286;51.570;7.090;2023-05-09T09:27:13;22.90;99.90
4548;DHT22;2286;51.570;7.090;2023-05-09T09:29:40;23.00;99.90
4548;DHT22;2286;51.570;7.090;2023-05-09T09:32:07;22.90;99.90
4548;DHT22;2286;51.570;7.090;2023-05-09T09:34:33;23.40;99.90
4548;DHT22;2286;51.570;7.090;2023-05-09T09:37:00;23.60;99.90
4548;DHT22;2286;51.570;7.090;2023-05-09T09:39:27;23.50;99.90
4548;DHT22;2286;51.570;7.090;2023-05-09T09:41:54;23.40;99.90
4548;DHT22;2286;51.570;7.090;2023-05-09T09:44:22;22.90;99.90
4548;DHT22;2286;51.570;7.090;2023-05-09T09:46:50;23.10;99.90
4548;DHT22;2286;51.570;7.090;2023-05-09T09:49:18;23.20;99.90
4548;DHT22;2286;51.570;7.090;2023-05-09T09:51:49;23.90;99.90
4548;DHT22;2286;51.570;7.090;2023-05-09T09:54:17;24.60;99.90
4548;DHT22;2286;51.570;7.090;2023-05-09T09:56:46;24.90;99.90
4548;DHT22;2286;51.570;7.090;2023-05-09T09:59:14;24.90;99.90
4548;DHT22;2286;51.570;7.090;2023-05-09T10:01:57;25.10;99.90
4548;DHT22;2286;51.570;7.090;2023-05-09T10:04:28;24.90;99.90
4548;DHT22;2286;51.570;7.090;2023-05-09T10:06:57;24.90;99.90
4548;DHT22;2286;51.570;7.090;2023-05-09T10:09:25;25.00;99.90
4548;DHT22;2286;51.570;7.090;2023-05-09T10:11:53;25.00;99.90
4548;DHT22;2286;51.570;7.090;2023-05-09T10:14:22;25.30;99.90
4548;DHT22;2286;51.570;7.090;2023-05-09T10:16:51;25.70;99.90
4548;DHT22;2286;51.570;7.090;2023-05-09T10:19:22;26.30;99.90
4548;DHT22;2286;51.570;7.090;2023-05-09T10:21:52;26.20;99.90
4548;DHT22;2286;51.570;7.090;2023-05-09T10:24:26;26.50;99.90
4548;DHT22;2286;51.570;7.090;2023-05-09T10:26:59;26.60;99.90
4548;DHT22;2286;51.570;7.090;2023-05-09T10:29:33;26.70;99.90
4548;DHT22;2286;51.570;7.090;2023-05-09T10:32:06;26.60;99.90
4548;DHT22;2286;51.570;7.090;2023-05-09T10:34:37;26.40;99.90
4548;DHT22;2286;51.570;7.090;2023-05-09T10:37:07;25.90;99.90
4548;DHT22;2286;51.570;7.090;2023-05-09T10:39:35;25.00;99.90
4548;DHT22;2286;51.570;7.090;2023-05-09T10:42:03;25.10;99.90
4548;DHT22;2286;51.570;7.090;2023-05-09T10:44:32;24.90;99.90
4548;DHT22;2286;51.570;7.090;2023-05-09T10:47:00;24.30;99.90
4548;DHT22;2286;51.570;7.090;2023-05-09T10:49:28;24.20;99.90
4548;DHT22;2286;51.570;7.090;2023-05-09T10:51:56;24.50;99.90
4548;DHT22;2286;51.570;7.090;2023-05-09T10:54:28;24.60;99.90
4548;DHT22;2286;51.570;7.090;2023-05-09T10:56:58;24.50;99.90
4548;DHT22;2286;51.570;7.090;2023-05-09T10:59:35;24.30;99.90
4548;DHT22;2286;51.570;7.090;2023-05-09T11:02:03;24.10;99.90
4548;DHT22;2286;51.570;7.090;2023-05-09T11:04:31;24.50;99.90
4548;DHT22;2286;51.570;7.090;2023-05-09T11:06:59;24.70;99.90
4548;DHT22;2286;51.570;7.090;2023-05-09T11:09:33;25.10;99.90
4548;DHT22;2286;51.570;7.090;2023-05-09T11:12:10;25.40;99.90
4548;DHT22;2286;51.570;7.090;2023-05-09T11:14:39;25.20;99.90
4548;DHT22;2286;51.570;7.090;2023-05-09T11:17:08;24.60;99.90
4548;DHT22;2286;51.570;7.090;2023-05-09T11:19:37;24.40;99.90
4548;DHT22;2286;51.570;7.090;2023-05-09T11:22:11;24.40;99.90
4548;DHT22;2286;51.570;7.090;2023-05-09T11:24:39;24.70;99.90
4548;DHT22;2286;51.570;7.090;2023-05-09T11:27:18;24.90;99.90
4548;DHT22;2286;51.570;7.090;2023-05-09T11:29:49;25.10;99.90
4548;DHT22;2286;51.570;7.090;2023-05-09T11:32:17;25.00;99.90
4548;DHT22;2286;51.570;7.090;2023-05-09T11:34:44;25.00;99.90
4548;DHT22;2286;51.570;7.090;2023-05-09T11:37:15;24.90;99.90
4548;DHT22;2286;51.570;7.090;2023-05-09T11:39:57;24.60;99.90
4548;DHT22;2286;51.570;7.090;2023-05-09T11:42:26;24.40;99.90
4548;DHT22;2286;51.570;7.090;2023-05-09T11:44:54;24.40;99.90
4548;DHT22;2286;51.570;7.090;2023-05-09T11:47:22;24.80;99.90
4548;DHT22;2286;51.570;7.090;2023-05-09T11:49:49;24.70;99.90
4548;DHT22;2286;51.570;7.090;2023-05-09T11:52:18;24.60;99.90
4548;DHT22;2286;51.570;7.090;2023-05-09T11:54:45;24.60;99.90
4548;DHT22;2286;51.570;7.090;2023-05-09T11:57:12;24.50;99.90
4548;DHT22;2286;51.570;7.090;2023-05-09T11:59:42;23.80;99.90
4548;DHT22;2286;51.570;7.090;2023-05-09T12:02:10;23.60;99.90
4548;DHT22;2286;51.570;7.090;2023-05-09T12:04:37;23.90;99.90
4548;DHT22;2286;51.570;7.090;2023-05-09T12:07:04;24.30;99.90
4548;DHT22;2286;51.570;7.090;2023-05-09T12:09:34;24.40;99.90
4548;DHT22;2286;51.570;7.090;2023-05-09T12:12:08;24.70;99.90
4548;DHT22;2286;51.570;7.090;2023-05-09T12:14:36;24.60;99.90
4548;DHT22;2286;51.570;7.090;2023-05-09T12:17:04;24.60;99.90
4548;DHT22;2286;51.570;7.090;2023-05-09T12:19:31;24.70;99.90
4548;DHT22;2286;51.570;7.090;2023-05-09T12:22:00;24.90;99.90
4548;DHT22;2286;51.570;7.090;2023-05-09T12:24:28;25.30;99.90
4548;DHT22;2286;51.570;7.090;2023-05-09T12:26:57;25.50;99.90
4548;DHT22;2286;51.570;7.090;2023-05-09T12:29:25;26.00;99.90
4548;DHT22;2286;51.570;7.090;2023-05-09T12:31:52;26.40;99.90
4548;DHT22;2286;51.570;7.090;2023-05-09T12:34:20;26.90;99.90
4548;DHT22;2286;51.570;7.090;2023-05-09T12:36:47;27.10;99.90
4548;DHT22;2286;51.570;7.090;2023-05-09T12:39:15;26.90;99.90
4548;DHT22;2286;51.570;7.090;2023-05-09T12:41:44;26.60;99.90
4548;DHT22;2286;51.570;7.090;2023-05-09T12:44:19;26.80;99.90
4548;DHT22;2286;51.570;7.090;2023-05-09T12:46:57;27.10;99.90
4548;DHT22;2286;51.570;7.090;2023-05-09T12:49:24;27.20;99.90
4548;DHT22;2286;51.570;7.090;2023-05-09T12:51:52;26.90;99.90
4548;DHT22;2286;51.570;7.090;2023-05-09T12:54:20;26.70;99.90
4548;DHT22;2286;51.570;7.090;2023-05-09T12:56:48;26.80;99.90
4548;DHT22;2286;51.570;7.090;2023-05-09T12:59:21;26.30;99.90
4548;DHT22;2286;51.570;7.090;2023-05-09T13:01:52;26.10;99.90
4548;DHT22;2286;51.570;7.090;2023-05-09T13:04:20;26.00;99.90
4548;DHT22;2286;51.570;7.090;2023-05-09T13:06:48;26.20;99.90
4548;DHT22;2286;51.570;7.090;2023-05-09T13:09:16;26.70;99.90
4548;DHT22;2286;51.570;7.090;2023-05-09T13:11:44;27.00;99.90
4548;DHT22;2286;51.570;7.090;2023-05-09T13:14:11;27.60;99.90
4548;DHT22;2286;51.570;7.090;2023-05-09T13:16:40;27.80;99.90
4548;DHT22;2286;51.570;7.090;2023-05-09T13:19:07;27.50;99.90
4548;DHT22;2286;51.570;7.090;2023-05-09T13:21:34;27.50;99.90
4548;DHT22;2286;51.570;7.090;2023-05-09T13:24:01;27.50;99.90
4548;DHT22;2286;51.570;7.090;2023-05-09T13:26:28;27.40;99.90
4548;DHT22;2286;51.570;7.090;2023-05-09T13:28:55;26.80;99.90
4548;DHT22;2286;51.570;7.090;2023-05-09T13:31:22;26.50;99.90
4548;DHT22;2286;51.570;7.090;2023-05-09T13:33:51;26.10;99.90
4548;DHT22;2286;51.570;7.090;2023-05-09T13:36:18;25.70;99.90
4548;DHT22;2286;51.570;7.090;2023-05-09T13:38:45;25.90;99.90
4548;DHT22;2286;51.570;7.090;2023-05-09T13:41:12;25.50;99.90
4548;DHT22;2286;51.570;7.090;2023-05-09T13:43:44;25.30;99.90
4548;DHT22;2286;51.570;7.090;2023-05-09T13:46:11;25.30;99.90
4548;DHT22;2286;51.570;7.090;2023-05-09T13:48:39;25.30;99.90
4548;DHT22;2286;51.570;7.090;2023-05-09T13:51:07;25.40;99.90
4548;DHT22;2286;51.570;7.090;2023-05-09T13:53:35;25.50;99.90
4548;DHT22;2286;51.570;7.090;2023-05-09T13:56:04;25.20;99.90
4548;DHT22;2286;51.570;7.090;2023-05-09T13:58:31;25.00;99.90
4548;DHT22;2286;51.570;7.090;2023-05-09T14:00:58;24.60;99.90
4548;DHT22;2286;51.570;7.090;2023-05-09T14:03:25;23.80;99.90
4548;DHT22;2286;51.570;7.090;2023-05-09T14:05:52;22.70;99.90
4548;DHT22;2286;51.570;7.090;2023-05-09T14:08:20;22.00;99.90
4548;DHT22;2286;51.570;7.090;2023-05-09T14:10:47;21.70;99.90
4548;DHT22;2286;51.570;7.090;2023-05-09T14:13:14;21.40;99.90
4548;DHT22;2286;51.570;7.090;2023-05-09T14:15:41;21.10;1.00
4548;DHT22;2286;51.570;7.090;2023-05-09T14:18:08;20.80;1.00
4548;DHT22;2286;51.570;7.090;2023-05-09T14:20:35;20.90;1.00
4548;DHT22;2286;51.570;7.090;2023-05-09T14:23:04;20.80;1.00
4548;DHT22;2286;51.570;7.090;2023-05-09T14:25:33;20.60;1.00
4548;DHT22;2286;51.570;7.090;2023-05-09T14:27:59;20.30;1.00
4548;DHT22;2286;51.570;7.090;2023-05-09T14:30:26;20.20;1.00
4548;DHT22;2286;51.570;7.090;2023-05-09T14:32:53;20.20;1.00
4548;DHT22;2286;51.570;7.090;2023-05-09T14:35:20;20.00;13.90
4548;DHT22;2286;51.570;7.090;2023-05-09T14:37:47;19.90;99.90
4548;DHT22;2286;51.570;7.090;2023-05-09T14:40:14;19.90;99.90
4548;DHT22;2286;51.570;7.090;2023-05-09T14:42:42;19.60;1.00
4548;DHT22;2286;51.570;7.090;2023-05-09T14:45:10;19.10;77.50
4548;DHT22;2286;51.570;7.090;2023-05-09T14:47:39;18.80;99.90
4548;DHT22;2286;51.570;7.090;2023-05-09T14:50:07;18.60;1.00
4548;DHT22;2286;51.570;7.090;2023-05-09T14:52:35;18.40;1.00
4548;DHT22;2286;51.570;7.090;2023-05-09T14:55:03;18.40;1.00
4548;DHT22;2286;51.570;7.090;2023-05-09T14:57:31;18.30;1.00
4548;DHT22;2286;51.570;7.090;2023-05-09T14:59:59;18.10;99.90
4548;DHT22;2286;51.570;7.090;2023-05-09T15:02:26;18.00;99.90
4548;DHT22;2286;51.570;7.090;2023-05-09T15:04:53;18.10;99.90
4548;DHT22;2286;51.570;7.090;2023-05-09T15:07:20;18.00;1.00
4548;DHT22;2286;51.570;7.090;2023-05-09T15:09:47;17.80;1.00
4548;DHT22;2286;51.570;7.090;2023-05-09T15:12:14;17.70;99.90
4548;DHT22;2286;51.570;7.090;2023-05-09T15:14:41;17.70;1.00
4548;DHT22;2286;51.570;7.090;2023-05-09T15:17:09;17.90;1.00
4548;DHT22;2286;51.570;7.090;2023-05-09T15:19:36;18.00;99.90
4548;DHT22;2286;51.570;7.090;2023-05-09T15:22:03;18.00;1.00
4548;DHT22;2286;51.570;7.090;2023-05-09T15:24:30;17.90;99.90
4548;DHT22;2286;51.570;7.090;2023-05-09T15:26:57;17.80;1.00
4548;DHT22;2286;51.570;7.090;2023-05-09T15:29:24;17.70;99.90
4548;DHT22;2286;51.570;7.090;2023-05-09T15:31:51;17.60;99.90
4548;DHT22;2286;51.570;7.090;2023-05-09T15:34:20;17.60;99.90
4548;DHT22;2286;51.570;7.090;2023-05-09T15:36:48;17.50;99.90
4548;DHT22;2286;51.570;7.090;2023-05-09T15:39:14;17.30;1.00
4548;DHT22;2286;51.570;7.090;2023-05-09T15:41:41;17.30;1.00
4548;DHT22;2286;51.570;7.090;2023-05-09T15:44:08;17.10;1.00
4548;DHT22;2286;51.570;7.090;2023-05-09T15:46:35;17.10;1.00
4548;DHT22;2286;51.570;7.090;2023-05-09T15:49:02;16.90;1.00
4548;DHT22;2286;51.570;7.090;2023-05-09T15:51:30;16.80;1.00
4548;DHT22;2286;51.570;7.090;2023-05-09T15:53:57;16.60;99.90
4548;DHT22;2286;51.570;7.090;2023-05-09T15:56:24;16.50;99.90
4548;DHT22;2286;51.570;7.090;2023-05-09T15:58:51;16.40;99.90
4548;DHT22;2286;51.570;7.090;2023-05-09T16:01:17;16.40;99.90
4548;DHT22;2286;51.570;7.090;2023-05-09T16:03:44;16.40;99.90
4548;DHT22;2286;51.570;7.090;2023-05-09T16:06:11;16.30;99.90
4548;DHT22;2286;51.570;7.090;2023-05-09T16:08:40;16.40;99.90
4548;DHT22;2286;51.570;7.090;2023-05-09T16:11:06;16.50;99.90
4548;DHT22;2286;51.570;7.090;2023-05-09T16:13:33;16.50;99.90